Alpine, TX

9:18 AM CDT on March 25, 2017 (GMT -0500)
Alpine

Weather History for KE38 - October, 2012

Change the Weather History Date:

Friday, October 5, 2012

  Actual Average (KMRF) Record (KMRF)
Temperature  
Mean Temperature 70 °F -  
Max Temperature 87 °F 75 °F 87 °F (2000)
Min Temperature 54 °F 47 °F 42 °F (2010)
Cooling Degree Days 6    
Growing Degree Days 20 (Base 50)    
Moisture  
Dew Point 45 °F    
Average Humidity 44    
Maximum Humidity 80    
Minimum Humidity 21    
Precipitation  
Precipitation 0.00 in - - ()
Sea Level Pressure  
Sea Level Pressure 30.21 in    
Wind  
Wind Speed 8 mph (SSW)    
Max Wind Speed 13 mph    
Max Gust Speed 16 mph    
Visibility 10 miles    
Events      
Averages and records for this station are not official NWS values.
T = Trace of Precipitation, MM = Missing Value Source: NWS Daily Summary

Daily Weather History Graph

Daily Weather History Graph

Search for Another Location

Airport or City:

Trip Planner

Search our weather history database for the weather conditions in past years. The results will help you decide how hot, cold, wet, or windy it might be!

Date:

Astronomy

Oct. 05, 2012 Rise Set
Actual Time 7:50 AM CDT 7:34 PM CDT
Civil Twilight 7:26 AM CDT 7:58 PM CDT
Nautical Twilight 6:59 AM CDT 8:26 PM CDT
Astronomical Twilight 6:31 AM CDT 8:54 PM CDT
Moon 11:19 PM CDT (10/5) 12:41 PM CDT (10/5)
Length of Visible Light 12h 31m
Length of Day
11h 43m
Waning Gibbous, 74% of the Moon is Illuminated
Oct 5
Waning Gibbous
Oct 8
Last Quarter
Oct 15
New
Oct 21
First Quarter
Oct 29
Full

Hourly Weather History & Observations

Time (CDT) Temp. Dew Point Humidity Pressure Visibility Wind Dir Wind Speed Gust Speed Precip Events Conditions
12:15 AM 55.2 °F 48.0 °F 77% 30.28 in 10.0 mi SW 9.2 mph - N/A   Clear
12:35 AM 55.4 °F 47.7 °F 75% 30.28 in 10.0 mi SW 5.8 mph - N/A   Clear
12:55 AM 54.0 °F 47.8 °F 80% 30.28 in 10.0 mi SSW 5.8 mph - N/A   Clear
1:15 AM 54.7 °F 47.7 °F 77% 30.27 in 10.0 mi SW 4.6 mph - N/A   Clear
1:35 AM 54.7 °F 47.7 °F 77% 30.27 in 10.0 mi SSW 8.1 mph - N/A   Clear
1:55 AM 54.7 °F 47.7 °F 77% 30.26 in 10.0 mi SW 5.8 mph - N/A   Clear
2:15 AM 54.1 °F 47.5 °F 78% 30.25 in 10.0 mi South 5.8 mph - N/A   Clear
2:35 AM 54.3 °F 47.5 °F 78% 30.24 in 10.0 mi SSW 8.1 mph - N/A   Clear
2:55 AM 54.1 °F 47.5 °F 78% 30.24 in 10.0 mi SW 5.8 mph - N/A   Clear
3:15 AM 55.0 °F 47.3 °F 75% 30.24 in 10.0 mi SSW 6.9 mph - N/A   Clear
3:35 AM 58.5 °F 47.3 °F 66% 30.24 in 10.0 mi South 6.9 mph - N/A   Clear
3:55 AM 60.6 °F 47.3 °F 61% 30.23 in 10.0 mi Calm Calm - N/A   Clear
4:15 AM 57.2 °F 46.8 °F 68% 30.22 in 10.0 mi Calm Calm - N/A   Clear
4:35 AM 60.4 °F 46.4 °F 60% 30.21 in 10.0 mi SSW 9.2 mph - N/A   Clear
4:55 AM 63.1 °F 46.0 °F 54% 30.21 in 10.0 mi SW 6.9 mph - N/A   Clear
5:15 AM 60.8 °F 46.0 °F 58% 30.21 in 10.0 mi SW 9.2 mph - N/A   Clear
5:35 AM 63.3 °F 46.6 °F 54% 30.21 in 10.0 mi SSW 5.8 mph - N/A   Clear
5:55 AM 62.8 °F 46.6 °F 55% 30.21 in 10.0 mi SW 10.4 mph - N/A   Clear
6:15 AM 63.3 °F 46.8 °F 55% 30.22 in 10.0 mi SW 10.4 mph - N/A   Clear
6:35 AM 62.6 °F 47.3 °F 57% 30.22 in 10.0 mi SSW 10.4 mph - N/A   Clear
6:55 AM 63.1 °F 47.5 °F 57% 30.22 in 10.0 mi SW 10.4 mph - N/A   Clear
7:15 AM 63.3 °F 47.8 °F 57% 30.23 in 10.0 mi SSW 8.1 mph - N/A   Clear
7:35 AM 62.1 °F 48.2 °F 60% 30.23 in 10.0 mi SW 11.5 mph - N/A   Clear
7:55 AM 63.5 °F 48.2 °F 57% 30.23 in 10.0 mi SW 9.2 mph - N/A   Clear
8:15 AM 64.6 °F 48.2 °F 55% 30.23 in 10.0 mi SW 10.4 mph - N/A   Clear
8:35 AM 66.2 °F 48.2 °F 52% 30.24 in 10.0 mi SW 10.4 mph - N/A   Clear
8:55 AM 67.8 °F 48.6 °F 50% 30.24 in 10.0 mi SW 12.7 mph - N/A   Clear
9:15 AM 69.6 °F 48.7 °F 47% 30.25 in 10.0 mi SW 10.4 mph - N/A   Clear
9:35 AM 71.1 °F 49.5 °F 46% 30.25 in 10.0 mi SW 8.1 mph - N/A   Clear
9:55 AM 73.6 °F 49.5 °F 43% 30.26 in 10.0 mi SSW 9.2 mph - N/A   Clear
10:15 AM 75.2 °F 48.7 °F 39% 30.26 in 10.0 mi SSW 10.4 mph - N/A   Clear
10:35 AM 76.6 °F 47.7 °F 36% 30.26 in 10.0 mi South 11.5 mph - N/A   Clear
10:55 AM 78.1 °F 47.5 °F 34% 30.27 in 10.0 mi SSW 9.2 mph - N/A   Clear
11:35 AM 80.2 °F 46.6 °F 31% 30.26 in 10.0 mi SSW 5.8 mph - N/A   Clear
11:55 AM 81.7 °F 45.9 °F 28% 30.27 in 10.0 mi SW 9.2 mph - N/A   Clear
12:15 PM 82.2 °F 44.8 °F 27% 30.26 in 10.0 mi SSW 10.4 mph - N/A   Clear
12:35 PM 83.1 °F 43.5 °F 25% 30.26 in 10.0 mi SW 6.9 mph 16.1 mph N/A   Clear
12:55 PM 83.7 °F 44.1 °F 25% 30.25 in 10.0 mi SW 8.1 mph - N/A   Clear
1:35 PM 84.2 °F 43.5 °F 24% 30.23 in 10.0 mi SW 5.8 mph - N/A   Clear
1:55 PM 85.1 °F 44.1 °F 24% 30.22 in 10.0 mi South 8.1 mph - N/A   Clear
2:15 PM 85.3 °F 42.8 °F 22% 30.21 in 10.0 mi SSW 10.4 mph - N/A   Clear
2:35 PM 85.8 °F 42.6 °F 22% 30.20 in 10.0 mi South 6.9 mph - N/A   Clear
2:55 PM 86.2 °F 43.2 °F 22% 30.19 in 10.0 mi SSW 9.2 mph - N/A   Clear
3:15 PM 86.5 °F 43.5 °F 22% 30.18 in 10.0 mi SW 9.2 mph - N/A   Clear
3:35 PM 87.3 °F 42.8 °F 21% 30.17 in 10.0 mi South 9.2 mph - N/A   Clear
3:55 PM 86.9 °F 42.4 °F 21% 30.17 in 10.0 mi SSE 9.2 mph - N/A   Clear
4:15 PM 87.1 °F 42.4 °F 21% 30.16 in 10.0 mi South 6.9 mph - N/A   Clear
4:35 PM 86.9 °F 43.3 °F 22% 30.16 in 10.0 mi SSW 6.9 mph - N/A   Clear
4:55 PM 86.9 °F 42.4 °F 21% 30.15 in 10.0 mi Calm Calm - N/A   Clear
5:15 PM 86.7 °F 42.8 °F 21% 30.15 in 10.0 mi SSW 11.5 mph - N/A   Scattered Clouds
5:35 PM 86.4 °F 43.2 °F 22% 30.14 in 10.0 mi South 5.8 mph 16.1 mph N/A   Clear
5:55 PM 86.2 °F 42.8 °F 22% 30.14 in 10.0 mi South 5.8 mph - N/A   Clear
6:15 PM 86.0 °F 42.6 °F 22% 30.13 in 10.0 mi SW 4.6 mph - N/A   Clear
6:35 PM 85.1 °F 42.4 °F 22% 30.14 in 10.0 mi SSE 6.9 mph - N/A   Clear
6:55 PM 83.7 °F 41.5 °F 23% 30.14 in 10.0 mi South 8.1 mph - N/A   Clear
7:15 PM 80.4 °F 43.5 °F 27% 30.15 in 10.0 mi South 5.8 mph - N/A   Clear
7:35 PM 76.6 °F 42.6 °F 30% 30.15 in 10.0 mi South 6.9 mph - N/A   Clear
7:55 PM 73.2 °F 41.9 °F 32% 30.15 in 10.0 mi South 5.8 mph - N/A   Clear
8:15 PM 72.1 °F 41.2 °F 33% 30.15 in 10.0 mi South 8.1 mph - N/A   Clear
8:35 PM 72.5 °F 40.5 °F 31% 30.15 in 10.0 mi South 9.2 mph - N/A   Clear
8:55 PM 71.8 °F 40.5 °F 32% 30.15 in 10.0 mi South 9.2 mph - N/A   Clear
9:15 PM 69.6 °F 41.4 °F 36% 30.16 in 10.0 mi SSW 8.1 mph - N/A   Clear
9:35 PM 67.6 °F 41.7 °F 39% 30.16 in 10.0 mi South 6.9 mph - N/A   Clear
9:55 PM 64.9 °F 42.8 °F 45% 30.16 in 10.0 mi South 5.8 mph - N/A   Clear
10:35 PM 63.7 °F 42.6 °F 46% 30.16 in 10.0 mi SSW 6.9 mph - N/A   Clear
10:55 PM 64.2 °F 42.3 °F 45% 30.16 in 10.0 mi SW 5.8 mph - N/A   Clear
11:15 PM 66.0 °F 41.4 °F 41% 30.16 in 10.0 mi SW 5.8 mph - N/A   Clear
11:35 PM 67.1 °F 40.6 °F 38% 30.15 in 10.0 mi SW 6.9 mph - N/A   Clear
11:55 PM 66.6 °F 40.8 °F 39% 30.15 in 10.0 mi SSW 4.6 mph - N/A   Clear